createdAt,value
2019-05-11T00:00:22.431Z,10.20
2019-05-11T00:02:54.251Z,11.23
2019-05-11T00:05:26.036Z,10.63
2019-05-11T00:07:57.828Z,11.27
2019-05-11T00:10:29.516Z,11.40
2019-05-11T00:13:01.267Z,10.77
2019-05-11T00:15:33.095Z,10.87
2019-05-11T00:18:04.891Z,10.93
2019-05-11T00:20:36.641Z,11.00
2019-05-11T00:23:08.333Z,11.37
2019-05-11T00:25:40.060Z,11.23
2019-05-11T00:28:11.789Z,12.03
2019-05-11T00:30:44.645Z,12.27
2019-05-11T00:33:16.412Z,12.97
2019-05-11T00:35:48.226Z,12.13
2019-05-11T00:38:20.023Z,11.40
2019-05-11T00:40:51.759Z,11.23
2019-05-11T00:43:23.451Z,12.97
2019-05-11T00:45:55.242Z,12.47
2019-05-11T00:48:26.975Z,12.57
2019-05-11T00:50:58.710Z,11.97
2019-05-11T00:53:30.393Z,12.37
2019-05-11T00:56:02.154Z,12.37
2019-05-11T00:58:33.838Z,12.00
2019-05-11T01:01:05.586Z,12.67
2019-05-11T01:03:37.263Z,13.17
2019-05-11T01:06:08.984Z,11.13
2019-05-11T01:08:40.772Z,11.87
2019-05-11T01:11:12.502Z,12.63
2019-05-11T01:13:44.158Z,11.60
2019-05-11T01:16:15.859Z,12.37
2019-05-11T01:18:47.651Z,13.03
2019-05-11T01:21:19.401Z,13.20
2019-05-11T01:23:51.076Z,12.07
2019-05-11T01:26:22.892Z,12.67
2019-05-11T01:28:54.619Z,12.33
2019-05-11T01:31:26.343Z,13.50
2019-05-11T01:33:58.041Z,12.90
2019-05-11T01:36:29.755Z,12.40
2019-05-11T01:39:01.441Z,12.17
2019-05-11T01:41:33.135Z,12.50
2019-05-11T01:44:04.993Z,12.27
2019-05-11T01:46:36.897Z,13.10
2019-05-11T01:49:08.628Z,11.90
2019-05-11T01:51:40.296Z,12.20
2019-05-11T01:54:12.118Z,12.40
2019-05-11T01:56:43.837Z,14.07
2019-05-11T01:59:15.554Z,12.97
2019-05-11T02:01:47.269Z,14.20
2019-05-11T02:04:19.025Z,13.57
2019-05-11T02:06:50.705Z,13.40
2019-05-11T02:09:22.562Z,12.57
2019-05-11T02:11:54.415Z,13.40
2019-05-11T02:14:26.119Z,13.60
2019-05-11T02:16:57.847Z,12.83
2019-05-11T02:19:29.453Z,12.43
2019-05-11T02:22:01.150Z,12.37
2019-05-11T02:24:32.841Z,12.90
2019-05-11T02:27:04.557Z,11.90
2019-05-11T02:29:36.258Z,12.17
2019-05-11T02:32:08.119Z,11.93
2019-05-11T02:34:39.888Z,11.13
2019-05-11T02:37:13.480Z,11.93
2019-05-11T02:39:45.206Z,12.57
2019-05-11T02:42:16.943Z,12.13
2019-05-11T02:44:48.686Z,13.23
2019-05-11T02:47:20.470Z,13.00
2019-05-11T02:49:52.175Z,13.47
2019-05-11T02:52:25.351Z,14.63
2019-05-11T02:55:00.065Z,14.20
2019-05-11T02:57:31.749Z,14.83
2019-05-11T03:00:03.522Z,13.73
2019-05-11T03:02:35.222Z,15.40
2019-05-11T03:05:08.613Z,15.47
2019-05-11T03:07:40.335Z,15.27
2019-05-11T03:10:12.028Z,15.00
2019-05-11T03:12:44.080Z,14.37
2019-05-11T03:15:17.329Z,16.17
2019-05-11T03:17:49.018Z,14.90
2019-05-11T03:20:20.709Z,15.13
2019-05-11T03:22:52.377Z,15.87
2019-05-11T03:25:24.012Z,15.23
2019-05-11T03:27:55.702Z,14.67
2019-05-11T03:30:28.208Z,15.10
2019-05-11T03:32:59.976Z,15.03
2019-05-11T03:35:31.658Z,14.13
2019-05-11T03:38:03.321Z,17.17
2019-05-11T03:40:35.151Z,14.53
2019-05-11T03:43:06.968Z,13.90
2019-05-11T03:45:38.670Z,14.83
2019-05-11T03:48:10.388Z,15.33
2019-05-11T03:50:42.304Z,15.47
2019-05-11T03:53:13.993Z,14.13
2019-05-11T03:55:45.783Z,14.80
2019-05-11T03:58:17.490Z,15.37
2019-05-11T04:00:49.170Z,15.40
2019-05-11T04:03:20.838Z,14.97
2019-05-11T04:05:52.525Z,15.73
2019-05-11T04:08:24.324Z,16.10
2019-05-11T04:10:56.021Z,15.03
2019-05-11T04:13:28.120Z,15.63
2019-05-11T04:15:59.852Z,16.30
2019-05-11T04:18:31.524Z,16.13
2019-05-11T04:21:03.216Z,15.10
2019-05-11T04:23:35.007Z,15.37
2019-05-11T04:26:06.700Z,16.10
2019-05-11T04:28:38.400Z,16.53
2019-05-11T04:31:10.067Z,16.03
2019-05-11T04:33:41.726Z,17.77
2019-05-11T04:36:13.407Z,18.20
2019-05-11T04:38:45.124Z,18.63
2019-05-11T04:41:16.856Z,19.90
2019-05-11T04:43:48.536Z,18.80
2019-05-11T04:46:20.167Z,18.20
2019-05-11T04:48:51.911Z,16.90
2019-05-11T04:51:23.577Z,15.83
2019-05-11T04:53:55.214Z,16.40
2019-05-11T04:56:26.926Z,16.63
2019-05-11T04:59:00.061Z,15.60
2019-05-11T05:01:31.789Z,16.27
2019-05-11T05:04:13.366Z,17.00
2019-05-11T05:06:38.951Z,17.03
2019-05-11T05:09:10.331Z,18.60
2019-05-11T05:11:42.063Z,18.80
2019-05-11T05:14:13.840Z,18.47
2019-05-11T05:16:45.517Z,17.73
2019-05-11T05:19:17.212Z,19.67
2019-05-11T05:21:48.936Z,19.13
2019-05-11T05:24:20.610Z,18.50
2019-05-11T05:26:52.457Z,18.10
2019-05-11T05:29:24.149Z,19.07
2019-05-11T05:31:55.868Z,17.90
2019-05-11T05:34:27.598Z,19.30
2019-05-11T05:36:59.266Z,18.03
2019-05-11T05:39:31.004Z,18.43
2019-05-11T05:42:02.686Z,18.43
2019-05-11T05:44:35.667Z,19.17
2019-05-11T05:47:07.363Z,19.10
2019-05-11T05:49:39.078Z,19.07
2019-05-11T05:52:10.817Z,21.10
2019-05-11T05:54:44.085Z,18.90
2019-05-11T05:57:15.779Z,19.40
2019-05-11T05:59:47.474Z,20.63
2019-05-11T06:02:19.212Z,21.43
2019-05-11T06:04:50.931Z,25.77
2019-05-11T06:07:22.625Z,25.97
2019-05-11T06:09:54.311Z,27.20
2019-05-11T06:12:25.968Z,27.40
2019-05-11T06:14:57.682Z,28.27
2019-05-11T06:17:29.359Z,26.77
2019-05-11T06:20:01.570Z,28.53
2019-05-11T06:22:33.668Z,31.80
2019-05-11T06:25:05.656Z,28.17
2019-05-11T06:27:37.428Z,30.10
2019-05-11T06:30:09.691Z,29.33
2019-05-11T06:32:41.381Z,29.07
2019-05-11T06:35:13.114Z,32.43
2019-05-11T06:37:44.798Z,29.10
2019-05-11T06:40:16.790Z,28.97
2019-05-11T06:42:48.499Z,28.33
2019-05-11T06:45:20.228Z,28.47
2019-05-11T06:47:52.056Z,27.90
2019-05-11T06:50:23.744Z,28.20
2019-05-11T06:52:55.549Z,27.67
2019-05-11T06:55:27.547Z,27.57
2019-05-11T06:57:59.279Z,27.27
2019-05-11T07:00:31.005Z,26.53
2019-05-11T07:03:02.762Z,26.37
2019-05-11T07:05:34.460Z,25.60
2019-05-11T07:08:06.148Z,27.37
2019-05-11T07:10:37.871Z,26.07
2019-05-11T07:13:09.531Z,27.37
2019-05-11T07:15:41.290Z,28.73
2019-05-11T07:18:13.146Z,26.80
2019-05-11T07:20:50.547Z,25.17
2019-05-11T07:23:18.338Z,27.23
2019-05-11T07:25:50.054Z,25.93
2019-05-11T07:28:21.810Z,26.23
2019-05-11T07:30:53.568Z,26.87
2019-05-11T07:33:25.300Z,26.57
2019-05-11T07:35:58.379Z,26.17
2019-05-11T07:38:30.132Z,28.67
2019-05-11T07:41:01.906Z,25.73
2019-05-11T07:43:33.587Z,26.33
2019-05-11T07:46:07.739Z,27.37
2019-05-11T07:48:39.023Z,26.13
2019-05-11T07:51:10.752Z,26.23
2019-05-11T07:53:43.732Z,28.50
2019-05-11T07:56:15.471Z,26.93
2019-05-11T07:58:48.128Z,28.73
2019-05-11T08:01:20.013Z,26.67
2019-05-11T08:03:51.713Z,28.77
2019-05-11T08:06:23.480Z,27.33
2019-05-11T08:08:55.228Z,27.60
2019-05-11T08:11:30.736Z,26.30
2019-05-11T08:14:00.424Z,25.53
2019-05-11T08:16:32.371Z,24.93
2019-05-11T08:19:07.063Z,22.40
2019-05-11T08:21:38.850Z,20.60
2019-05-11T08:24:10.836Z,20.23
2019-05-11T08:26:42.533Z,20.77
2019-05-11T08:29:15.483Z,21.27
2019-05-11T08:31:48.803Z,20.40
2019-05-11T08:34:20.776Z,20.10
2019-05-11T08:36:52.599Z,18.93
2019-05-11T08:39:24.346Z,19.03
2019-05-11T08:41:56.066Z,18.37
2019-05-11T08:44:28.787Z,19.87
2019-05-11T08:47:00.747Z,19.27
2019-05-11T08:49:32.512Z,18.03
2019-05-11T08:52:04.186Z,20.07
2019-05-11T08:54:38.018Z,20.30
2019-05-11T08:57:09.406Z,18.20
2019-05-11T08:59:41.128Z,17.53
2019-05-11T09:02:12.832Z,17.93
2019-05-11T09:04:48.176Z,17.00
2019-05-11T09:07:19.353Z,17.70
2019-05-11T09:09:51.137Z,15.97
2019-05-11T09:12:22.813Z,16.80
2019-05-11T09:14:54.637Z,15.73
2019-05-11T09:17:28.700Z,15.53
2019-05-11T09:19:59.908Z,16.00
2019-05-11T09:22:31.614Z,16.00
2019-05-11T09:25:03.374Z,16.77
2019-05-11T09:27:37.498Z,16.70
2019-05-11T09:30:09.572Z,14.97
2019-05-11T09:32:41.303Z,15.93
2019-05-11T09:35:13.337Z,15.33
2019-05-11T09:37:45.127Z,15.70
2019-05-11T09:40:18.260Z,16.80
2019-05-11T09:42:50.109Z,15.47
2019-05-11T09:45:23.189Z,16.87
2019-05-11T09:47:54.923Z,15.90
2019-05-11T09:50:28.367Z,16.83
2019-05-11T09:53:00.637Z,15.67
2019-05-11T09:55:32.401Z,16.93
2019-05-11T09:58:04.142Z,15.70
2019-05-11T10:00:35.912Z,17.40
2019-05-11T10:03:08.377Z,15.27
2019-05-11T10:05:40.163Z,15.00
2019-05-11T10:08:12.058Z,14.47
2019-05-11T10:10:43.831Z,12.57
2019-05-11T10:13:15.670Z,12.90
2019-05-11T10:16:02.984Z,12.00
2019-05-11T10:18:24.140Z,12.83
2019-05-11T10:21:03.264Z,11.93
2019-05-11T10:23:35.161Z,11.57
2019-05-11T10:26:28.018Z,11.03
2019-05-11T10:29:04.883Z,12.17
2019-05-11T10:31:38.599Z,11.90
2019-05-11T10:34:10.085Z,12.60
2019-05-11T10:36:57.778Z,10.93
2019-05-11T10:39:32.104Z,10.47
2019-05-11T10:42:11.312Z,10.10
2019-05-11T10:44:53.053Z,11.80
2019-05-11T10:47:30.122Z,10.50
2019-05-11T10:50:04.423Z,11.30
2019-05-11T10:52:37.871Z,10.27
2019-05-11T10:55:10.125Z,10.83
2019-05-11T10:57:41.850Z,11.10
2019-05-11T11:00:14.697Z,10.27
2019-05-11T11:02:47.720Z,9.23
2019-05-11T11:05:20.044Z,9.30
2019-05-11T11:07:51.760Z,10.10
2019-05-11T11:10:28.613Z,9.07
2019-05-11T11:12:59.962Z,8.40
2019-05-11T11:15:38.006Z,7.87
2019-05-11T11:18:08.794Z,9.20
2019-05-11T11:20:40.644Z,8.27
2019-05-11T11:23:12.469Z,8.40
2019-05-11T11:25:48.123Z,7.00
2019-05-11T11:28:20.023Z,6.53
2019-05-11T11:30:52.428Z,6.42
2019-05-11T11:33:27.691Z,6.50
2019-05-11T11:35:59.690Z,8.13
2019-05-11T11:38:31.463Z,6.60
2019-05-11T11:41:03.502Z,6.30
2019-05-11T11:43:38.215Z,6.20
2019-05-11T11:46:11.531Z,6.00
2019-05-11T11:48:48.855Z,7.30
2019-05-11T11:51:24.596Z,6.37
2019-05-11T11:53:59.412Z,6.93
2019-05-11T11:56:32.041Z,7.07
2019-05-11T11:59:08.484Z,5.77
2019-05-11T12:01:40.555Z,5.90
2019-05-11T12:04:12.311Z,6.57
2019-05-11T12:06:46.122Z,6.27
2019-05-11T12:09:18.289Z,6.30
2019-05-11T12:11:51.615Z,9.13
2019-05-11T12:14:35.687Z,6.63
2019-05-11T12:17:11.033Z,5.90
2019-05-11T12:19:44.502Z,5.83
2019-05-11T12:22:18.949Z,6.03
2019-05-11T12:24:50.780Z,7.90
2019-05-11T12:27:22.489Z,5.00
2019-05-11T12:30:03.757Z,5.10
2019-05-11T12:32:48.706Z,5.73
2019-05-11T12:35:23.036Z,5.40
2019-05-11T12:38:00.926Z,4.80
2019-05-11T12:40:33.778Z,4.43
2019-05-11T12:43:08.164Z,4.93
2019-05-11T12:45:43.401Z,4.43
2019-05-11T12:48:15.195Z,4.83
2019-05-11T12:50:48.638Z,4.63
2019-05-11T12:53:20.387Z,4.63
2019-05-11T12:55:54.598Z,4.50
2019-05-11T12:58:28.067Z,7.13
2019-05-11T13:01:02.476Z,5.00
2019-05-11T13:03:35.107Z,5.95
2019-05-11T13:06:08.197Z,4.53
2019-05-11T13:08:40.185Z,4.78
2019-05-11T13:11:12.437Z,4.58
2019-05-11T13:13:44.221Z,5.40
2019-05-11T13:16:20.653Z,4.93
2019-05-11T13:18:57.642Z,5.47
2019-05-11T13:21:30.076Z,6.17
2019-05-11T13:24:05.246Z,5.93
2019-05-11T13:26:38.012Z,5.20
2019-05-11T13:29:10.192Z,5.27
2019-05-11T13:31:41.966Z,5.00
2019-05-11T13:34:17.902Z,6.17
2019-05-11T13:36:50.962Z,4.70
2019-05-11T13:39:23.864Z,4.87
2019-05-11T13:41:57.903Z,4.83
2019-05-11T13:44:29.483Z,4.60
2019-05-11T13:47:04.476Z,6.13
2019-05-11T13:49:41.367Z,4.60
2019-05-11T13:52:19.090Z,5.10
2019-05-11T13:54:52.899Z,3.83
2019-05-11T13:57:24.630Z,4.80
2019-05-11T13:59:58.072Z,6.03
2019-05-11T14:02:32.404Z,4.70
2019-05-11T14:05:05.778Z,5.50
2019-05-11T14:07:39.755Z,5.60
2019-05-11T14:10:11.841Z,7.77
2019-05-11T14:12:43.557Z,5.17
2019-05-11T14:15:15.277Z,4.27
2019-05-11T14:17:48.577Z,5.80
2019-05-11T14:20:20.876Z,5.83
2019-05-11T14:22:55.349Z,5.50
2019-05-11T14:25:27.919Z,5.20
2019-05-11T14:27:59.829Z,4.93
2019-05-11T14:30:31.584Z,4.83
2019-05-11T14:33:08.514Z,6.43
2019-05-11T14:35:39.345Z,5.20
2019-05-11T14:38:11.134Z,6.07
2019-05-11T14:40:44.602Z,6.07
2019-05-11T14:43:20.627Z,4.30
2019-05-11T14:45:57.854Z,5.93
2019-05-11T14:48:38.945Z,4.20
2019-05-11T14:51:13.322Z,5.07
2019-05-11T14:53:51.179Z,5.43
2019-05-11T14:56:22.973Z,6.17
2019-05-11T14:58:57.989Z,4.93
2019-05-11T15:01:32.684Z,6.10
2019-05-11T15:04:09.255Z,4.10
2019-05-11T15:06:45.055Z,4.33
2019-05-11T15:09:24.269Z,4.80
2019-05-11T15:11:59.459Z,6.80
2019-05-11T15:14:37.804Z,4.63
2019-05-11T15:17:13.225Z,5.27
2019-05-11T15:19:45.131Z,5.33
2019-05-11T15:22:18.093Z,4.77
2019-05-11T15:24:53.449Z,4.80
2019-05-11T15:27:28.943Z,4.83
2019-05-11T15:30:01.656Z,4.80
2019-05-11T15:32:34.841Z,6.70
2019-05-11T15:35:08.101Z,5.50
2019-05-11T15:37:39.977Z,6.43
2019-05-11T15:40:18.554Z,4.53
2019-05-11T15:42:50.802Z,4.47
2019-05-11T15:45:22.586Z,6.77
2019-05-11T15:47:54.356Z,3.53
2019-05-11T15:50:26.118Z,4.00
2019-05-11T15:52:58.355Z,5.60
2019-05-11T15:55:30.247Z,3.87
2019-05-11T15:58:02.122Z,4.00
2019-05-11T16:00:35.146Z,4.10
2019-05-11T16:03:08.204Z,3.27
2019-05-11T16:05:40.299Z,3.50
2019-05-11T16:08:12.137Z,2.80
2019-05-11T16:10:45.085Z,2.17
2019-05-11T16:13:18.123Z,2.70
2019-05-11T16:15:50.292Z,2.20
2019-05-11T16:18:22.018Z,2.97
2019-05-11T16:20:53.783Z,2.60
2019-05-11T16:23:25.595Z,2.70
2019-05-11T16:25:58.064Z,2.10
2019-05-11T16:28:30.913Z,3.40
2019-05-11T16:31:02.762Z,3.10
2019-05-11T16:33:34.522Z,2.63
2019-05-11T16:36:08.813Z,4.23
2019-05-11T16:38:39.650Z,4.80
2019-05-11T16:41:11.461Z,2.57
2019-05-11T16:43:43.220Z,4.77
2019-05-11T16:46:14.973Z,1.90
2019-05-11T16:48:46.739Z,2.27
2019-05-11T16:51:18.494Z,3.20
2019-05-11T16:53:50.458Z,4.40
2019-05-11T16:56:22.239Z,1.73
2019-05-11T16:58:54.870Z,2.37
2019-05-11T17:01:26.834Z,1.80
2019-05-11T17:03:58.599Z,3.20
2019-05-11T17:06:31.998Z,2.63
2019-05-11T17:09:08.895Z,2.30
2019-05-11T17:11:40.376Z,3.00
2019-05-11T17:14:12.134Z,1.57
2019-05-11T17:16:43.920Z,3.50
2019-05-11T17:19:18.234Z,2.67
2019-05-11T17:21:49.215Z,3.30
2019-05-11T17:24:20.974Z,3.97
2019-05-11T17:26:52.736Z,2.43
2019-05-11T17:29:24.517Z,2.63
2019-05-11T17:31:57.959Z,2.90
2019-05-11T17:34:29.862Z,1.90
2019-05-11T17:37:01.701Z,2.47
2019-05-11T17:39:33.555Z,1.93
2019-05-11T17:42:05.293Z,2.47
2019-05-11T17:44:37.875Z,2.77
2019-05-11T17:47:09.809Z,3.10
2019-05-11T17:49:56.032Z,2.67
2019-05-11T17:52:15.063Z,3.03
2019-05-11T17:54:47.775Z,2.20
2019-05-11T17:57:19.735Z,2.27
2019-05-11T17:59:51.456Z,3.23
2019-05-11T18:02:24.478Z,3.63
2019-05-11T18:04:58.410Z,2.60
2019-05-11T18:07:31.734Z,4.87
2019-05-11T18:10:03.538Z,3.50
2019-05-11T18:12:40.708Z,2.17
2019-05-11T18:15:12.949Z,2.50
2019-05-11T18:17:44.690Z,1.50
2019-05-11T18:20:21.622Z,1.67
2019-05-11T18:22:53.077Z,2.97
2019-05-11T18:25:28.496Z,2.63
2019-05-11T18:28:01.318Z,3.30
2019-05-11T18:30:35.493Z,2.60
2019-05-11T18:33:08.327Z,3.90
2019-05-11T18:35:40.344Z,4.10
2019-05-11T18:38:12.336Z,3.13
2019-05-11T18:40:44.275Z,2.37
2019-05-11T18:43:18.677Z,1.47
2019-05-11T18:45:49.957Z,3.17
2019-05-11T18:48:21.925Z,1.70
2019-05-11T18:50:56.262Z,1.90
2019-05-11T18:53:28.889Z,2.97
2019-05-11T18:56:03.291Z,3.23
2019-05-11T18:58:35.128Z,2.23
2019-05-11T19:01:11.581Z,2.60
2019-05-11T19:03:47.869Z,3.00
2019-05-11T19:06:24.906Z,4.57
2019-05-11T19:08:59.348Z,1.33
2019-05-11T19:11:31.139Z,1.80
2019-05-11T19:14:02.877Z,2.57
2019-05-11T19:16:34.709Z,3.87
2019-05-11T19:19:08.063Z,1.27
2019-05-11T19:21:40.060Z,4.03
2019-05-11T19:24:12.327Z,2.53
2019-05-11T19:26:44.063Z,2.53
2019-05-11T19:29:18.982Z,1.90
2019-05-11T19:31:50.897Z,3.33
2019-05-11T19:34:22.662Z,3.27
2019-05-11T19:36:57.943Z,2.10
2019-05-11T19:39:29.798Z,3.33
2019-05-11T19:42:02.004Z,3.03
2019-05-11T19:44:35.874Z,2.53
2019-05-11T19:47:08.938Z,2.67
2019-05-11T19:49:40.806Z,3.30
2019-05-11T19:52:12.580Z,3.93
2019-05-11T19:54:44.354Z,3.47
2019-05-11T19:57:18.152Z,3.27
2019-05-11T19:59:50.378Z,5.30
2019-05-11T20:02:22.567Z,1.97
2019-05-11T20:04:54.447Z,1.83
2019-05-11T20:07:26.346Z,2.50
2019-05-11T20:09:58.339Z,1.67
2019-05-11T20:12:30.122Z,1.77
2019-05-11T20:15:02.133Z,4.53
2019-05-11T20:17:33.933Z,2.80
2019-05-11T20:20:08.842Z,1.90
2019-05-11T20:22:40.809Z,1.60
2019-05-11T20:25:14.178Z,2.27
2019-05-11T20:27:48.273Z,3.27
2019-05-11T20:30:19.629Z,2.73
2019-05-11T20:32:51.482Z,1.87
2019-05-11T20:35:23.285Z,4.13
2019-05-11T20:37:55.068Z,2.00
2019-05-11T20:40:28.579Z,3.50
2019-05-11T20:43:00.606Z,4.00
2019-05-11T20:45:32.416Z,2.90
2019-05-11T20:48:07.743Z,2.37
2019-05-11T20:50:43.488Z,5.70
2019-05-11T20:53:17.429Z,2.00
2019-05-11T20:55:51.651Z,2.00
2019-05-11T20:58:23.434Z,1.73
2019-05-11T21:00:55.166Z,2.47
2019-05-11T21:03:27.672Z,3.93
2019-05-11T21:05:59.581Z,2.27
2019-05-11T21:08:31.344Z,1.73
2019-05-11T21:11:03.308Z,1.97
2019-05-11T21:13:35.164Z,3.47
2019-05-11T21:16:08.657Z,2.97
2019-05-11T21:18:40.434Z,3.43
2019-05-11T21:21:12.277Z,3.07
2019-05-11T21:23:44.076Z,3.20
2019-05-11T21:26:15.984Z,3.20
2019-05-11T21:28:48.659Z,3.70
2019-05-11T21:31:20.630Z,5.50
2019-05-11T21:33:52.366Z,3.63
2019-05-11T21:36:24.190Z,2.77
2019-05-11T21:38:58.579Z,2.40
2019-05-11T21:41:30.974Z,3.17
2019-05-11T21:44:03.079Z,3.13
2019-05-11T21:46:35.284Z,3.70
2019-05-11T21:49:07.818Z,3.20
2019-05-11T21:51:39.752Z,1.43
2019-05-11T21:54:11.675Z,4.00
2019-05-11T21:56:43.403Z,4.20
2019-05-11T21:59:15.249Z,1.83
2019-05-11T22:01:48.498Z,3.57
2019-05-11T22:04:20.653Z,2.93
2019-05-11T22:06:52.385Z,1.77
2019-05-11T22:09:24.207Z,3.07
2019-05-11T22:11:56.038Z,2.93
2019-05-11T22:14:29.932Z,1.57
2019-05-11T22:17:02.602Z,3.37
2019-05-11T22:19:34.522Z,1.73
2019-05-11T22:22:19.118Z,4.20
2019-05-11T22:24:39.766Z,2.90
2019-05-11T22:27:11.607Z,4.07
2019-05-11T22:29:43.440Z,3.07
2019-05-11T22:32:15.160Z,2.57
2019-05-11T22:34:47.940Z,3.57
2019-05-11T22:37:19.763Z,2.30
2019-05-11T22:39:51.541Z,2.73
2019-05-11T22:42:23.341Z,2.47
2019-05-11T22:44:55.079Z,5.67
2019-05-11T22:47:28.412Z,3.13
2019-05-11T22:50:00.226Z,1.50
2019-05-11T22:52:36.417Z,2.53
2019-05-11T22:55:05.477Z,4.80
2019-05-11T22:57:38.087Z,4.53
2019-05-11T23:00:11.624Z,3.30
2019-05-11T23:02:43.462Z,3.47
2019-05-11T23:05:15.395Z,2.70
2019-05-11T23:07:48.130Z,3.20
2019-05-11T23:10:19.994Z,2.43
2019-05-11T23:12:51.816Z,3.17
2019-05-11T23:15:24.632Z,4.80
2019-05-11T23:17:59.768Z,2.80
2019-05-11T23:20:30.262Z,2.87
2019-05-11T23:23:01.937Z,2.10
2019-05-11T23:25:34.458Z,2.80
2019-05-11T23:28:06.152Z,4.13
2019-05-11T23:30:38.896Z,3.67
2019-05-11T23:33:10.938Z,4.37
2019-05-11T23:35:42.696Z,3.13
2019-05-11T23:38:14.454Z,3.53
2019-05-11T23:40:48.184Z,4.07
2019-05-11T23:43:20.004Z,3.47
2019-05-11T23:45:51.708Z,3.77
2019-05-11T23:48:23.520Z,2.80
2019-05-11T23:50:55.379Z,4.33
2019-05-11T23:53:30.811Z,3.13
2019-05-11T23:56:02.837Z,4.33
2019-05-11T23:58:35.181Z,2.70
